Terminal Aerodrome Forecast
Issued by NWS

Home | Current Version | Previous Version | Text Only | Print | Product List | Glossary On
Versions: 1 2 3 4 5 6 7 8 9 10 11 12 13 14
000
FTUS43 KAPX 182325 AAA
TAFAPN
TAF AMD
KAPN 182325Z 1823/1924 17011G18KT P6SM BKN120 OVC200 WS020/19040KT
     FM190400 18012G19KT P6SM BKN120 OVC200 WS020/21050KT
     FM190900 19009KT P6SM BKN120 WS020/21040KT
     FM191200 19007KT P6SM OVC070 WS020/21030KT
     FM191500 VRB05KT P6SM OVC050
     FM192300 06006KT 2SM -RA OVC012=

USA.gov is the U.S. government's official web portal to all federal, state and local government web resources and services.